Terminal Aerodrome Forecast
Issued by NWS

Home | Current Version | Previous Version | Text Only | Print | Product List | Glossary On
Versions: 1 2 3 4 5 6 7 8 9 10 11 12 13 14 15 16 17 18
888
FTUS44 KLZK 300529
TAFLLQ
TAF
KLLQ 300529Z 3006/0106 12006KT P6SM -RA SCT008 OVC035
     FM300900 10008KT 5SM -TSRA BR SCT008 OVC025CB
     FM301200 15007KT 2SM TSRA BR BKN005CB OVC025
     FM301500 19010KT 6SM -RA BR BKN008 OVC015=

USA.gov is the U.S. government's official web portal to all federal, state and local government web resources and services.